createdAt,value
2019-02-24T00:02:42.098Z,5.44
2019-02-24T00:07:44.582Z,5.35
2019-02-24T00:12:47.024Z,5.27
2019-02-24T00:17:49.494Z,5.24
2019-02-24T00:22:51.941Z,5.19
2019-02-24T00:27:54.394Z,5.19
2019-02-24T00:32:56.877Z,5.20
2019-02-24T00:37:59.352Z,5.11
2019-02-24T00:43:01.839Z,5.05
2019-02-24T00:48:04.302Z,5.12
2019-02-24T00:53:06.759Z,5.09
2019-02-24T00:58:15.959Z,5.02
2019-02-24T01:03:11.684Z,4.93
2019-02-24T01:08:14.155Z,4.95
2019-02-24T01:13:16.626Z,4.93
2019-02-24T01:18:19.094Z,4.90
2019-02-24T01:23:21.567Z,4.86
2019-02-24T01:28:25.546Z,4.75
2019-02-24T01:33:26.473Z,4.73
2019-02-24T01:38:28.929Z,4.72
2019-02-24T01:43:31.397Z,4.70
2019-02-24T01:48:33.856Z,4.74
2019-02-24T01:53:36.330Z,4.82
2019-02-24T01:58:38.764Z,4.81
2019-02-24T02:03:41.224Z,4.74
2019-02-24T02:08:43.668Z,4.79
2019-02-24T02:13:46.135Z,4.85
2019-02-24T02:18:48.590Z,4.83
2019-02-24T02:23:51.055Z,4.84
2019-02-24T02:28:53.518Z,4.83
2019-02-24T02:33:55.996Z,4.89
2019-02-24T02:38:58.451Z,4.85
2019-02-24T02:44:00.906Z,4.80
2019-02-24T02:49:04.618Z,4.64
2019-02-24T02:54:05.834Z,4.58
2019-02-24T02:59:08.301Z,4.63
2019-02-24T03:04:10.750Z,4.70
2019-02-24T03:09:13.203Z,4.73
2019-02-24T03:14:15.665Z,4.70
2019-02-24T03:19:18.146Z,4.69
2019-02-24T03:24:20.607Z,4.59
2019-02-24T03:29:23.065Z,4.43
2019-02-24T03:34:25.548Z,4.28
2019-02-24T03:39:28.045Z,4.14
2019-02-24T03:44:30.496Z,3.96
2019-02-24T03:49:32.967Z,3.70
2019-02-24T03:54:35.443Z,3.66
2019-02-24T03:59:37.943Z,3.61
2019-02-24T04:04:40.394Z,4.21
2019-02-24T04:09:42.848Z,4.16
2019-02-24T04:14:45.300Z,4.18
2019-02-24T04:19:47.762Z,4.23
2019-02-24T04:24:50.219Z,4.14
2019-02-24T04:29:52.737Z,4.21
2019-02-24T04:34:55.126Z,4.18
2019-02-24T04:39:57.605Z,4.10
2019-02-24T04:45:00.279Z,4.12
2019-02-24T04:50:02.517Z,4.20
2019-02-24T04:55:04.972Z,4.17
2019-02-24T05:00:07.508Z,4.10
2019-02-24T05:05:09.969Z,4.08
2019-02-24T05:10:12.447Z,4.04
2019-02-24T05:15:14.900Z,4.03
2019-02-24T05:20:17.379Z,4.08
2019-02-24T05:25:19.844Z,4.23
2019-02-24T05:30:22.291Z,4.20
2019-02-24T05:35:24.751Z,4.20
2019-02-24T05:40:27.232Z,4.16
2019-02-24T05:45:29.683Z,4.04
2019-02-24T05:50:32.141Z,3.94
2019-02-24T05:55:34.595Z,3.95
2019-02-24T06:00:37.060Z,3.93
2019-02-24T06:05:39.518Z,3.85
2019-02-24T06:10:41.985Z,3.71
2019-02-24T06:15:44.429Z,3.75
2019-02-24T06:20:46.898Z,3.66
2019-02-24T06:25:49.343Z,3.69
2019-02-24T06:30:51.796Z,3.77
2019-02-24T06:35:54.266Z,4.16
2019-02-24T06:40:56.733Z,4.31
2019-02-24T06:45:59.203Z,4.40
2019-02-24T06:51:01.661Z,4.55
2019-02-24T06:56:04.223Z,4.84
2019-02-24T07:01:06.687Z,5.08
2019-02-24T07:06:09.153Z,5.32
2019-02-24T07:11:11.615Z,5.48
2019-02-24T07:16:14.061Z,5.66
2019-02-24T07:21:16.536Z,5.74
2019-02-24T07:26:19.039Z,5.84
2019-02-24T07:31:21.503Z,5.93
2019-02-24T07:36:23.960Z,6.05
2019-02-24T07:41:26.476Z,6.19
2019-02-24T07:46:28.927Z,6.22
2019-02-24T07:51:31.410Z,6.41
2019-02-24T07:56:33.865Z,6.74
2019-02-24T08:01:36.322Z,6.97
2019-02-24T08:06:38.797Z,7.23
2019-02-24T08:11:41.268Z,7.37
2019-02-24T08:16:43.731Z,7.49
2019-02-24T08:21:46.193Z,7.76
2019-02-24T08:26:48.659Z,7.86
2019-02-24T08:31:51.145Z,7.89
2019-02-24T08:36:53.590Z,7.97
2019-02-24T08:41:56.224Z,8.17
2019-02-24T08:46:58.677Z,8.38
2019-02-24T08:52:01.180Z,9.13
2019-02-24T08:57:03.634Z,8.95
2019-02-24T09:02:06.095Z,9.21
2019-02-24T09:07:08.687Z,9.40
2019-02-24T09:12:11.040Z,9.74
2019-02-24T09:17:13.504Z,9.78
2019-02-24T09:22:15.990Z,9.68
2019-02-24T09:27:18.498Z,10.05
2019-02-24T09:32:21.007Z,10.21
2019-02-24T09:37:23.470Z,10.15
2019-02-24T09:42:25.947Z,10.31
2019-02-24T09:47:28.420Z,10.62
2019-02-24T09:52:30.982Z,10.81
2019-02-24T09:57:33.434Z,10.69
2019-02-24T10:02:35.901Z,10.86
2019-02-24T10:07:38.367Z,11.13
2019-02-24T10:12:40.849Z,11.19
2019-02-24T10:17:43.303Z,11.18
2019-02-24T10:22:45.775Z,11.40
2019-02-24T10:27:48.242Z,11.45
2019-02-24T10:32:50.710Z,11.22
2019-02-24T10:37:53.195Z,11.21
2019-02-24T10:42:55.671Z,11.50
2019-02-24T10:47:58.126Z,11.44
2019-02-24T10:53:00.595Z,11.35
2019-02-24T10:58:03.169Z,11.55
2019-02-24T11:03:05.644Z,11.64
2019-02-24T11:08:08.112Z,11.81
2019-02-24T11:13:10.599Z,11.95
2019-02-24T11:18:13.062Z,11.84
2019-02-24T11:23:15.549Z,12.17
2019-02-24T11:28:18.036Z,12.48
2019-02-24T11:33:20.487Z,12.39
2019-02-24T11:38:23.013Z,12.44
2019-02-24T11:43:25.429Z,12.72
2019-02-24T11:48:27.900Z,12.83
2019-02-24T11:53:30.357Z,13.00
2019-02-24T11:58:32.864Z,13.22
2019-02-24T12:03:35.306Z,13.38
2019-02-24T12:08:37.757Z,13.40
2019-02-24T12:13:40.206Z,13.51
2019-02-24T12:18:42.686Z,13.58
2019-02-24T12:23:45.138Z,13.47
2019-02-24T12:28:47.593Z,13.43
2019-02-24T12:33:50.074Z,13.43
2019-02-24T12:38:52.539Z,13.54
2019-02-24T12:43:55.014Z,13.31
2019-02-24T12:53:59.205Z,13.20
2019-02-24T12:59:01.668Z,13.29
2019-02-24T13:04:04.143Z,13.25
2019-02-24T13:09:06.583Z,13.22
2019-02-24T13:14:09.035Z,13.09
2019-02-24T13:19:11.493Z,13.22
2019-02-24T13:24:13.950Z,13.16
2019-02-24T13:29:16.405Z,13.11
2019-02-24T13:34:18.875Z,13.18
2019-02-24T13:39:21.337Z,13.02
2019-02-24T13:44:23.804Z,13.12
2019-02-24T13:49:26.254Z,13.10
2019-02-24T13:54:28.716Z,13.02
2019-02-24T13:59:31.162Z,12.96
2019-02-24T14:04:33.611Z,12.97
2019-02-24T14:09:36.135Z,13.10
2019-02-24T14:14:38.625Z,13.12
2019-02-24T14:19:41.102Z,12.94
2019-02-24T14:24:43.572Z,12.90
2019-02-24T14:29:46.038Z,12.87
2019-02-24T14:34:48.489Z,12.79
2019-02-24T14:39:50.949Z,12.78
2019-02-24T14:44:53.476Z,12.72
2019-02-24T14:49:55.937Z,12.64
2019-02-24T14:54:58.398Z,12.76
2019-02-24T15:00:00.862Z,12.67
2019-02-24T15:05:03.343Z,12.74
2019-02-24T15:10:11.511Z,12.69
2019-02-24T15:15:16.912Z,12.52
2019-02-24T15:20:19.408Z,12.58
2019-02-24T15:25:21.873Z,12.44
2019-02-24T15:30:33.464Z,12.34
2019-02-24T15:35:35.983Z,12.38
2019-02-24T15:40:38.456Z,12.36
2019-02-24T15:45:40.950Z,12.24
2019-02-24T15:50:43.420Z,12.21
2019-02-24T15:55:45.914Z,12.16
2019-02-24T16:00:48.366Z,12.02
2019-02-24T16:05:50.828Z,11.90
2019-02-24T16:10:53.286Z,11.93
2019-02-24T16:15:55.754Z,11.81
2019-02-24T16:20:58.232Z,11.70
2019-02-24T16:26:00.731Z,11.62
2019-02-24T16:31:03.200Z,11.54
2019-02-24T16:36:05.670Z,11.44
2019-02-24T16:41:08.223Z,11.28
2019-02-24T16:46:10.684Z,11.05
2019-02-24T16:51:13.165Z,10.80
2019-02-24T16:56:15.645Z,10.63
2019-02-24T17:01:18.097Z,10.59
2019-02-24T17:06:20.569Z,10.55
2019-02-24T17:11:24.891Z,10.78
2019-02-24T17:16:25.675Z,11.27
2019-02-24T17:21:28.158Z,11.60
2019-02-24T17:26:30.628Z,11.21
2019-02-24T17:31:33.106Z,11.12
2019-02-24T17:36:35.587Z,11.03
2019-02-24T17:41:38.058Z,11.01
2019-02-24T17:46:40.531Z,10.87
2019-02-24T17:51:43.016Z,10.50
2019-02-24T17:56:45.472Z,10.33
2019-02-24T18:01:47.925Z,10.36
2019-02-24T18:06:50.417Z,10.39
2019-02-24T18:11:52.869Z,10.42
2019-02-24T18:16:55.329Z,10.38
2019-02-24T18:21:57.801Z,10.29
2019-02-24T18:27:00.307Z,10.38
2019-02-24T18:32:02.843Z,10.17
2019-02-24T18:37:05.340Z,10.12
2019-02-24T18:42:07.806Z,10.19
2019-02-24T18:47:10.340Z,10.15
2019-02-24T18:52:12.836Z,10.11
2019-02-24T18:57:15.957Z,10.01
2019-02-24T19:02:17.753Z,9.89
2019-02-24T19:07:20.248Z,9.99
2019-02-24T19:12:22.690Z,9.99
2019-02-24T19:17:25.225Z,10.10
2019-02-24T19:22:27.614Z,10.17
2019-02-24T19:27:30.072Z,10.16
2019-02-24T19:32:32.539Z,10.10
2019-02-24T19:37:34.990Z,10.10
2019-02-24T19:42:37.487Z,10.11
2019-02-24T19:47:39.984Z,10.18
2019-02-24T19:52:42.461Z,10.20
2019-02-24T19:57:44.933Z,10.22
2019-02-24T20:02:47.510Z,10.23
2019-02-24T20:07:50.003Z,10.11
2019-02-24T20:12:52.467Z,9.99
2019-02-24T20:17:54.938Z,9.97
2019-02-24T20:22:57.396Z,9.80
2019-02-24T20:27:59.867Z,9.54
2019-02-24T20:33:02.325Z,9.41
2019-02-24T20:38:04.824Z,9.31
2019-02-24T20:43:07.304Z,9.36
2019-02-24T20:48:09.765Z,9.27
2019-02-24T20:53:12.230Z,9.08
2019-02-24T20:58:14.748Z,9.13
2019-02-24T21:03:17.210Z,9.20
2019-02-24T21:08:19.712Z,9.29
2019-02-24T21:13:22.203Z,9.18
2019-02-24T21:18:24.683Z,9.24
2019-02-24T21:23:27.135Z,9.34
2019-02-24T21:28:29.619Z,9.30
2019-02-24T21:33:32.095Z,9.24
2019-02-24T21:38:34.553Z,9.08
2019-02-24T21:43:37.057Z,8.98
2019-02-24T21:48:39.497Z,8.85
2019-02-24T21:53:41.976Z,8.79
2019-02-24T21:58:44.450Z,8.64
2019-02-24T22:03:46.997Z,8.59
2019-02-24T22:08:49.453Z,8.41
2019-02-24T22:13:51.904Z,8.30
2019-02-24T22:18:54.369Z,8.19
2019-02-24T22:23:56.862Z,7.76
2019-02-24T22:28:59.320Z,7.68
2019-02-24T22:34:01.760Z,7.51
2019-02-24T22:39:04.221Z,7.32
2019-02-24T22:44:06.690Z,7.07
2019-02-24T22:49:09.153Z,6.94
2019-02-24T22:54:11.625Z,6.68
2019-02-24T22:59:14.073Z,6.55
2019-02-24T23:04:16.523Z,6.28
2019-02-24T23:09:18.973Z,6.06
2019-02-24T23:14:21.437Z,6.00
2019-02-24T23:19:23.896Z,6.02
2019-02-24T23:24:26.352Z,5.89
2019-02-24T23:29:28.814Z,5.91
2019-02-24T23:34:31.276Z,6.02
2019-02-24T23:39:33.735Z,5.94
2019-02-24T23:44:36.186Z,5.85
2019-02-24T23:49:38.651Z,5.69
2019-02-24T23:54:41.529Z,5.45
2019-02-24T23:59:43.594Z,5.37
